Time;durP1;ratioP1;P1;durP2;ratioP2;P2;SDS_P1;SDS_P2;PMS_P1;PMS_P2;Temp;Humidity;BMP_temperature;BMP_pressure;BME280_temperature;BME280_humidity;BME280_pressure;Samples;Min_cycle;Max_cycle;Signal;HPM_P1;HPM_P2
2022/04/02 00:01:16;;;;;;;8.20;4.50;;;2.80;99.90;;;2.29;99.77;100539.47;5205725;28;20079;-68
2022/04/02 00:03:48;;;;;;;11.25;5.60;;;2.80;99.90;;;2.22;99.44;100538.19;5205327;28;20049;-69
2022/04/02 00:06:20;;;;;;;10.23;6.10;;;2.70;99.90;;;2.21;99.96;100540.63;5205977;28;20041;-68
2022/04/02 00:08:54;;;;;;;11.63;5.68;;;2.70;99.90;;;2.22;99.78;100538.19;5205919;28;20406;-69
2022/04/02 00:11:27;;;;;;;12.10;5.40;;;2.70;99.90;;;2.21;100.00;100538.94;5205446;28;20499;-68
2022/04/02 00:13:59;;;;;;;11.27;5.35;;;2.70;99.90;;;2.22;100.00;100535.63;5205281;28;20057;-68
2022/04/02 00:16:31;;;;;;;10.88;6.38;;;2.70;99.90;;;2.28;100.00;100533.44;5206015;28;20046;-69
2022/04/02 00:19:03;;;;;;;12.32;6.25;;;2.70;99.90;;;2.32;100.00;100540.53;5205644;28;20049;-68
2022/04/02 00:21:37;;;;;;;10.52;5.90;;;2.80;99.90;;;2.33;100.00;100534.59;5205217;28;20045;-68
2022/04/02 00:24:10;;;;;;;11.25;5.65;;;2.70;99.90;;;2.31;100.00;100538.75;5205563;28;20549;-69
2022/04/02 00:26:42;;;;;;;12.00;5.65;;;2.80;99.90;;;2.31;100.00;100543.91;5205329;28;20046;-69
2022/04/02 00:29:14;;;;;;;11.50;5.78;;;2.80;99.90;;;2.36;100.00;100550.25;5205473;28;20049;-68
2022/04/02 00:31:46;;;;;;;8.27;4.90;;;2.80;99.90;;;2.40;100.00;100548.72;5205270;28;20060;-69
2022/04/02 00:34:18;;;;;;;10.80;5.68;;;2.80;99.90;;;2.39;100.00;100553.00;5205502;28;20406;-68
2022/04/02 00:36:50;;;;;;;10.65;5.75;;;2.80;99.90;;;2.39;99.81;100550.41;5205231;28;20046;-68
2022/04/02 00:39:23;;;;;;;12.63;5.85;;;2.80;99.90;;;2.38;99.79;100551.22;5205321;28;20128;-69
2022/04/02 00:41:55;;;;;;;11.57;5.95;;;2.80;99.90;;;2.37;99.43;100554.59;5205202;28;20049;-68
2022/04/02 00:44:27;;;;;;;11.23;5.95;;;2.80;99.90;;;2.38;100.00;100560.63;5205452;28;20406;-69
2022/04/02 00:46:59;;;;;;;8.73;5.18;;;2.80;99.90;;;2.32;99.95;100561.13;5205368;28;20055;-70
2022/04/02 00:49:31;;;;;;;12.32;6.45;;;2.80;99.90;;;2.30;100.00;100560.13;5206030;28;20412;-68
2022/04/02 00:52:04;;;;;;;9.98;5.40;;;2.80;99.90;;;2.34;100.00;100561.19;5211862;28;20486;-68
2022/04/02 00:54:40;;;;;;;11.05;5.10;;;2.80;99.90;;;2.34;100.00;100554.38;5212240;28;20049;-68
2022/04/02 00:57:12;;;;;;;9.95;5.65;;;2.80;99.90;;;2.35;100.00;100561.31;5212130;28;20510;-69
2022/04/02 00:59:45;;;;;;;9.45;5.63;;;2.80;99.90;;;2.37;100.00;100561.41;5212369;28;20375;-69
2022/04/02 01:02:18;;;;;;;10.25;5.28;;;2.80;99.90;;;2.39;99.96;100558.13;5211715;28;20140;-68
2022/04/02 01:04:51;;;;;;;10.55;5.05;;;2.80;99.90;;;2.41;99.97;100564.28;5211512;28;20049;-69
2022/04/02 01:07:23;;;;;;;10.95;5.53;;;2.80;99.90;;;2.40;99.59;100559.91;5211779;28;20052;-69
2022/04/02 01:09:56;;;;;;;10.75;5.20;;;2.80;99.90;;;2.40;99.60;100565.06;5211799;28;20049;-68
2022/04/02 01:12:28;;;;;;;9.80;5.30;;;2.80;99.90;;;2.40;99.82;100565.06;5211271;28;20469;-69
2022/04/02 01:15:00;;;;;;;10.55;5.28;;;2.80;99.90;;;2.42;99.70;100563.50;5211915;28;20049;-69
2022/04/02 01:17:32;;;;;;;10.70;5.03;;;2.80;99.90;;;2.45;99.22;100563.66;5211564;28;20048;-68
2022/04/02 01:20:08;;;;;;;10.07;5.15;;;2.80;99.90;;;2.48;99.16;100567.22;5211745;28;20049;-69
2022/04/02 01:22:41;;;;;;;8.32;4.72;;;2.80;99.90;;;2.49;99.31;100571.59;5211484;28;20049;-69
2022/04/02 01:25:13;;;;;;;8.25;4.28;;;2.80;99.90;;;2.50;98.83;100573.38;5211882;28;20072;-69
2022/04/02 01:27:46;;;;;;;7.18;4.22;;;2.80;99.90;;;2.50;98.76;100576.84;5211782;28;20052;-69
2022/04/02 01:30:18;;;;;;;8.13;4.70;;;2.90;99.90;;;2.51;99.04;100577.72;5211451;28;20136;-69
2022/04/02 01:32:50;;;;;;;9.30;4.70;;;2.80;99.90;;;2.52;99.10;100579.50;5211341;28;20057;-69
2022/04/02 01:35:22;;;;;;;8.98;4.18;;;2.90;99.90;;;2.50;98.79;100571.69;5211289;28;20049;-68
2022/04/02 01:37:56;;;;;;;6.07;3.65;;;2.80;99.90;;;2.47;98.23;100584.34;5211502;28;20077;-69
2022/04/02 01:40:28;;;;;;;6.63;3.80;;;2.80;99.90;;;2.45;98.50;100578.22;5211716;28;20136;-69
2022/04/02 01:43:00;;;;;;;7.47;4.15;;;2.80;99.90;;;2.47;98.32;100586.91;5211059;28;20053;-68
2022/04/02 01:45:32;;;;;;;7.10;3.53;;;2.80;99.90;;;2.43;98.09;100580.69;5211516;28;20136;-68
2022/04/02 01:48:04;;;;;;;8.23;3.92;;;2.80;99.90;;;2.40;98.16;100580.50;5211564;28;20045;-69
2022/04/02 01:50:36;;;;;;;7.95;3.92;;;2.80;99.90;;;2.39;98.03;100583.84;5211517;28;20049;-69
2022/04/02 01:53:10;;;;;;;7.53;3.55;;;2.80;99.90;;;2.40;98.23;100585.63;5211105;28;20414;-68
2022/04/02 01:55:42;;;;;;;6.82;3.13;;;2.80;99.90;;;2.40;98.37;100574.47;5211437;28;20053;-69
2022/04/02 01:58:14;;;;;;;7.82;3.42;;;2.70;99.90;;;2.36;98.27;100583.69;5211109;28;20050;-69
2022/04/02 02:00:47;;;;;;;5.78;3.22;;;2.70;99.90;;;2.33;98.53;100582.56;5210895;28;20049;-69
2022/04/02 02:03:19;;;;;;;5.40;2.88;;;2.70;99.90;;;2.33;98.69;100588.63;5207147;28;20449;-69
2022/04/02 02:05:51;;;;;;;6.03;2.75;;;2.70;99.90;;;2.31;98.88;100584.16;5208646;28;20045;-68
2022/04/02 02:08:24;;;;;;;4.72;2.90;;;2.70;99.90;;;2.32;98.96;100581.69;5207930;28;20056;-68
2022/04/02 02:10:57;;;;;;;7.53;3.60;;;2.70;99.90;;;2.36;99.13;100586.25;5207770;28;20057;-68
2022/04/02 02:13:29;;;;;;;7.45;3.67;;;2.70;99.90;;;2.36;99.11;100583.69;5207842;28;20504;-69
2022/04/02 02:16:01;;;;;;;7.53;4.20;;;2.70;99.90;;;2.31;98.98;100585.06;5208170;28;20049;-69
2022/04/02 02:18:33;;;;;;;10.98;5.18;;;2.70;99.90;;;2.30;99.20;100577.25;5207742;28;20401;-68
2022/04/02 02:21:05;;;;;;;10.00;4.80;;;2.70;99.90;;;2.29;98.83;100586.66;5207565;28;20049;-69
2022/04/02 02:23:39;;;;;;;12.73;5.45;;;2.70;99.90;;;2.28;99.14;100582.31;5207724;28;20099;-69
2022/04/02 02:26:11;;;;;;;7.72;4.50;;;2.70;99.90;;;2.27;98.92;100585.63;5207813;28;20422;-68
2022/04/02 02:28:43;;;;;;;10.32;5.32;;;2.70;99.90;;;2.27;99.27;100593.34;5207742;28;20085;-69
2022/04/02 02:31:15;;;;;;;12.73;5.55;;;2.70;99.90;;;2.26;99.56;100591.59;5207426;28;20045;-68
2022/04/02 02:36:37;;;;;;;9.20;4.60;;;2.70;99.90;;;2.27;99.50;100592.47;5207560;28;20060;-70
2022/04/02 02:39:10;;;;;;;11.00;5.22;;;2.70;99.90;;;2.30;99.23;100585.84;5207652;28;20495;-70
2022/04/02 02:41:42;;;;;;;11.38;4.97;;;2.60;99.90;;;2.28;99.72;100579.72;5207277;28;20113;-69
2022/04/02 02:44:14;;;;;;;10.32;4.55;;;2.70;99.90;;;2.28;99.33;100590.03;5207427;28;20517;-70
2022/04/02 02:46:46;;;;;;;12.45;5.22;;;2.70;99.90;;;2.30;99.33;100593.56;5207653;28;20465;-70
2022/04/02 02:49:18;;;;;;;8.65;4.82;;;2.70;99.90;;;2.28;99.50;100595.16;5207553;28;20466;-70
2022/04/02 02:51:51;;;;;;;7.90;4.28;;;2.60;99.90;;;2.26;99.33;100608.69;5206848;28;20054;-71
2022/04/02 02:54:25;;;;;;;9.27;4.55;;;2.60;99.90;;;2.29;99.54;100596.94;5207595;28;20049;-70
2022/04/02 02:56:57;;;;;;;9.18;4.68;;;2.60;99.90;;;2.30;99.57;100598.72;5207248;28;20422;-70
2022/04/02 02:59:29;;;;;;;12.05;5.47;;;2.60;99.90;;;2.25;99.63;100600.09;5207415;28;20053;-69
2022/04/02 03:02:01;;;;;;;7.88;4.82;;;2.60;99.90;;;2.29;99.45;100607.22;5206643;28;20053;-71
2022/04/02 03:04:33;;;;;;;9.55;4.95;;;2.60;99.90;;;2.27;99.38;100608.78;5206954;28;20050;-70
2022/04/02 03:07:05;;;;;;;12.43;4.45;;;2.60;99.90;;;2.24;99.61;100600.88;5206936;28;20103;-71
2022/04/02 03:09:39;;;;;;;7.38;4.20;;;2.60;99.90;;;2.20;99.62;100613.44;5207060;28;20053;-70
2022/04/02 03:12:11;;;;;;;9.43;4.40;;;2.60;99.90;;;2.19;99.73;100609.97;5206987;28;20183;-71
2022/04/02 03:14:43;;;;;;;8.48;4.22;;;2.60;99.90;;;2.19;99.63;100615.13;5206719;28;20050;-70
2022/04/02 03:17:15;;;;;;;8.10;4.38;;;2.60;99.90;;;2.24;99.43;100624.03;5206489;28;20494;-71
2022/04/02 03:19:47;;;;;;;7.20;4.18;;;2.60;99.90;;;2.22;99.92;100615.34;5206819;28;20049;-70
2022/04/02 03:22:20;;;;;;;8.15;4.30;;;2.60;99.90;;;2.20;99.69;100621.16;5206557;28;20308;-70
2022/04/02 03:24:54;;;;;;;10.30;4.47;;;2.60;99.90;;;2.18;99.53;100621.97;5206685;28;20053;-70
2022/04/02 03:27:26;;;;;;;9.20;4.57;;;2.60;99.90;;;2.19;99.97;100630.56;5206695;28;20053;-71
2022/04/02 03:29:58;;;;;;;9.55;4.40;;;2.60;99.90;;;2.24;100.00;100636.91;5206392;28;20053;-69
2022/04/02 03:32:30;;;;;;;8.70;4.43;;;2.60;99.90;;;2.21;99.22;100644.41;5206088;28;20055;-71
2022/04/02 03:35:03;;;;;;;8.65;4.80;;;2.60;99.90;;;2.20;99.64;100634.91;5206653;28;20046;-70
2022/04/02 03:37:37;;;;;;;7.85;3.72;;;2.60;99.90;;;2.18;99.51;100641.63;5206482;28;20410;-71
2022/04/02 03:40:14;;;;;;;8.90;3.90;;;2.60;99.90;;;2.18;99.31;100639.06;5206291;28;20045;-70
2022/04/02 03:42:47;;;;;;;8.23;4.05;;;2.60;99.90;;;2.15;99.65;100633.72;5206449;28;20478;-70
2022/04/02 03:45:21;;;;;;;8.30;4.32;;;2.60;99.90;;;2.20;99.38;100631.44;5206311;28;20052;-70
2022/04/02 03:47:53;;;;;;;7.32;4.00;;;2.60;99.90;;;2.21;99.80;100639.25;5206297;28;20045;-70
2022/04/02 03:50:26;;;;;;;6.57;4.10;;;2.60;99.90;;;2.18;99.10;100636.50;5205999;28;20056;-71
2022/04/02 03:52:59;;;;;;;7.03;3.95;;;2.60;99.90;;;2.18;99.34;100639.06;5205813;28;20049;-71
2022/04/02 03:55:32;;;;;;;6.05;4.20;;;2.60;99.90;;;2.19;99.58;100635.69;5206214;28;20053;-70
2022/04/02 03:58:04;;;;;;;7.05;4.13;;;2.50;99.90;;;2.17;99.04;100640.75;5206226;28;20052;-71
2022/04/02 04:00:36;;;;;;;12.60;4.60;;;2.60;99.90;;;2.17;99.16;100642.44;5206005;28;20132;-70
2022/04/02 04:03:08;;;;;;;9.82;4.05;;;2.60;99.90;;;2.17;98.86;100639.88;5205422;28;20049;-71
2022/04/02 04:05:40;;;;;;;9.00;4.28;;;2.50;99.90;;;2.16;99.47;100645.81;5206080;28;20140;-70
2022/04/02 04:08:12;;;;;;;9.18;4.18;;;2.50;99.90;;;2.17;99.38;100645.00;5205938;28;20046;-70
2022/04/02 04:10:46;;;;;;;7.30;4.28;;;2.50;99.90;;;2.19;99.05;100648.56;5205819;28;20042;-71
2022/04/02 04:13:18;;;;;;;9.25;4.15;;;2.60;99.90;;;2.18;99.76;100654.50;5205658;28;20136;-71
2022/04/02 04:15:49;;;;;;;8.35;4.22;;;2.60;99.90;;;2.18;99.65;100655.38;5205503;28;20053;-70
2022/04/02 04:18:23;;;;;;;9.00;4.32;;;2.50;99.90;;;2.17;99.49;100660.44;5205501;28;20056;-71
2022/04/02 04:20:56;;;;;;;9.63;4.18;;;2.60;99.90;;;2.19;99.21;100656.28;5205685;28;20049;-71
2022/04/02 04:23:27;;;;;;;8.90;4.85;;;2.60;99.90;;;2.20;99.04;100659.75;5205471;28;20057;-70
2022/04/02 04:26:01;;;;;;;8.70;4.35;;;2.60;99.90;;;2.19;99.04;100661.41;5205147;28;20413;-70
2022/04/02 04:28:33;;;;;;;8.95;3.85;;;2.60;99.90;;;2.16;98.88;100666.38;5205735;28;20053;-71
2022/04/02 04:31:05;;;;;;;7.95;4.15;;;2.50;99.90;;;2.15;99.08;100672.28;5341472;22;20056;-68
2022/04/02 04:33:38;;;;;;;8.45;4.32;;;2.50;99.90;;;2.15;99.66;100677.44;5204535;28;20041;-68
2022/04/02 04:36:10;;;;;;;7.63;3.72;;;2.50;99.90;;;2.16;99.24;100681.81;5204748;28;20083;-69
2022/04/02 04:38:43;;;;;;;10.85;4.60;;;2.50;99.90;;;2.17;99.28;100671.63;5204760;28;20410;-67
2022/04/02 04:41:17;;;;;;;8.77;4.18;;;2.50;99.90;;;2.17;99.04;100673.31;5205261;28;20045;-67
2022/04/02 04:43:49;;;;;;;10.27;4.60;;;2.50;99.90;;;2.15;99.32;100680.00;5204992;28;20474;-68
2022/04/02 04:46:22;;;;;;;6.35;3.42;;;2.50;99.90;;;2.14;99.21;100678.22;5204753;28;20049;-69
2022/04/02 04:48:54;;;;;;;7.53;3.78;;;2.50;99.90;;;2.16;99.62;100681.81;5205281;28;20041;-68
2022/04/02 04:51:26;;;;;;;9.38;4.85;;;2.50;99.90;;;2.17;99.44;100681.00;5204953;28;20049;-69
2022/04/02 04:53:58;;;;;;;7.88;3.70;;;2.50;99.90;;;2.12;98.84;100688.41;5205010;28;20423;-69
2022/04/02 04:56:31;;;;;;;6.80;3.38;;;2.50;99.90;;;2.07;98.66;100689.78;5205305;28;20053;-68
2022/04/02 04:59:03;;;;;;;6.15;3.20;;;2.50;99.90;;;2.08;99.18;100698.38;5205307;28;20049;-69
2022/04/02 05:01:35;;;;;;;10.75;3.72;;;2.50;99.90;;;2.03;98.58;100694.63;5204361;28;20046;-68
2022/04/02 05:04:09;;;;;;;8.23;3.78;;;2.50;99.90;;;2.06;99.22;100697.41;5205209;28;20108;-68
2022/04/02 05:06:42;;;;;;;9.90;4.15;;;2.50;99.90;;;2.11;99.38;100696.03;5204986;28;20508;-69
2022/04/02 05:09:14;;;;;;;9.75;4.05;;;2.50;99.90;;;2.12;98.86;100702.97;5205007;28;20553;-68
2022/04/02 05:11:47;;;;;;;6.30;3.40;;;2.50;99.90;;;2.16;98.82;100702.38;5204820;28;20362;-69
2022/04/02 05:14:19;;;;;;;8.55;4.00;;;2.60;99.90;;;2.21;99.10;100703.56;5204483;28;20083;-69
2022/04/02 05:16:52;;;;;;;10.63;3.67;;;2.50;99.90;;;2.23;98.73;100702.00;5204647;28;20056;-69
2022/04/02 05:19:24;;;;;;;9.05;3.55;;;2.60;99.90;;;2.26;98.46;100709.00;5205081;28;20485;-69
2022/04/02 05:21:56;;;;;;;7.93;3.78;;;2.60;99.90;;;2.24;98.25;100714.06;5204285;28;20052;-68
2022/04/02 05:24:28;;;;;;;7.35;3.20;;;2.60;99.90;;;2.23;98.21;100716.53;5204766;28;20055;-68
2022/04/02 05:27:01;;;;;;;6.55;3.22;;;2.60;99.90;;;2.20;97.42;100717.22;5204532;28;20051;-69
2022/04/02 05:29:34;;;;;;;5.38;3.05;;;2.60;99.90;;;2.18;97.69;100721.38;5204422;28;20045;-69
2022/04/02 05:32:08;;;;;;;7.32;2.92;;;2.60;99.90;;;2.19;97.56;100725.72;5204275;28;20072;-69
2022/04/02 05:34:40;;;;;;;8.50;3.33;;;2.60;99.90;;;2.17;97.03;100740.16;5204590;28;20059;-68
2022/04/02 05:37:12;;;;;;;5.93;2.70;;;2.60;99.90;;;2.18;96.65;100747.09;5205682;28;20053;-69
2022/04/02 05:39:44;;;;;;;7.30;3.05;;;2.60;99.90;;;2.20;96.29;100748.06;5208102;28;20049;-68
2022/04/02 05:42:17;;;;;;;5.30;2.58;;;2.60;99.90;;;2.21;96.48;100755.00;5208332;28;20049;-69
2022/04/02 05:44:49;;;;;;;7.13;2.97;;;2.60;99.90;;;2.24;96.26;100757.78;5208214;28;20045;-69
2022/04/02 05:47:21;;;;;;;5.82;2.50;;;2.60;99.90;;;2.27;96.41;100755.41;5208459;28;20379;-68
2022/04/02 05:49:53;;;;;;;6.05;2.40;;;2.60;99.90;;;2.26;96.10;100760.47;5208384;28;20379;-69
2022/04/02 05:52:25;;;;;;;7.32;2.90;;;2.60;99.90;;;2.27;95.52;100762.22;5208131;28;20049;-69
2022/04/02 05:54:57;;;;;;;3.78;2.22;;;2.60;99.90;;;2.33;95.82;100765.22;5208171;28;20093;-69
2022/04/02 05:57:31;;;;;;;5.75;2.13;;;2.70;99.90;;;2.36;96.04;100773.16;5208089;28;20072;-68
2022/04/02 06:00:04;;;;;;;2.88;1.98;;;2.70;99.90;;;2.38;95.80;100772.47;5207985;28;20045;-68
2022/04/02 06:02:36;;;;;;;6.18;2.22;;;2.70;99.90;;;2.35;95.07;100786.81;5207714;28;20147;-69
2022/04/02 06:05:11;;;;;;;3.47;1.88;;;2.70;99.90;;;2.39;95.39;100775.91;5207981;28;20054;-68
2022/04/02 06:07:44;;;;;;;5.05;2.92;;;2.70;99.90;;;2.34;95.06;100779.84;5208121;28;20089;-67
2022/04/02 06:10:16;;;;;;;5.78;2.75;;;2.70;99.90;;;2.35;95.18;100787.69;5207714;28;20064;-67
2022/04/02 06:12:51;;;;;;;4.65;2.63;;;2.70;99.90;;;2.36;94.43;100789.47;5207350;28;20045;-67
2022/04/02 06:15:24;;;;;;;6.28;2.15;;;2.70;99.90;;;2.37;94.98;100791.25;5208474;28;20057;-69
2022/04/02 06:17:56;;;;;;;3.35;2.13;;;2.70;99.90;;;2.44;95.15;100792.56;5207849;28;20406;-68
2022/04/02 06:20:28;;;;;;;4.50;2.53;;;2.70;99.90;;;2.44;94.68;100806.31;5207671;28;20512;-68
2022/04/02 06:23:00;;;;;;;4.55;2.28;;;2.70;99.90;;;2.43;94.62;100809.69;5207171;28;20065;-68
2022/04/02 06:25:33;;;;;;;4.57;2.33;;;2.70;99.90;;;2.47;94.55;100813.34;5207579;28;20057;-67
2022/04/02 06:28:07;;;;;;;3.95;2.13;;;2.70;99.90;;;2.47;94.13;100813.34;5207577;28;20069;-67
2022/04/02 06:30:39;;;;;;;5.07;2.17;;;2.80;99.90;;;2.49;93.93;100813.47;5207529;28;20049;-68
2022/04/02 06:33:11;;;;;;;5.18;2.55;;;2.80;99.90;;;2.49;94.33;100821.19;5207332;28;20103;-68
2022/04/02 06:35:43;;;;;;;4.57;2.45;;;2.80;99.90;;;2.48;93.59;100814.22;5207930;28;20053;-68
2022/04/02 06:38:16;;;;;;;5.63;2.30;;;2.80;99.90;;;2.48;94.02;100820.28;5207446;28;20049;-67
2022/04/02 06:40:48;;;;;;;7.38;2.55;;;2.80;99.90;;;2.53;93.92;100824.03;5207529;28;20049;-67
2022/04/02 06:43:22;;;;;;;4.93;2.28;;;2.80;99.90;;;2.56;93.75;100823.38;5206838;28;20049;-67
2022/04/02 06:45:54;;;;;;;3.60;1.80;;;2.80;99.90;;;2.56;93.53;100829.41;5207391;28;20103;-67
2022/04/02 06:48:26;;;;;;;5.63;2.30;;;2.90;99.90;;;2.57;93.27;100838.03;5206921;28;20046;-69
2022/04/02 06:50:58;;;;;;;3.60;2.20;;;2.90;99.90;;;2.58;93.23;100834.66;5207405;28;20053;-69
2022/04/02 06:53:30;;;;;;;5.13;2.25;;;2.90;99.90;;;2.60;93.54;100833.06;5207196;28;20095;-70
2022/04/02 06:56:02;;;;;;;6.35;2.58;;;2.90;99.90;;;2.63;93.33;100841.00;5207088;28;20051;-70
2022/04/02 06:58:38;;;;;;;5.05;2.30;;;2.90;99.90;;;2.66;93.23;100842.09;5207106;28;20046;-69
2022/04/02 07:01:10;;;;;;;4.20;2.08;;;3.00;99.90;;;2.73;93.20;100845.97;5206850;28;20057;-69
2022/04/02 07:03:42;;;;;;;5.18;2.25;;;3.00;99.90;;;2.81;92.73;100852.53;5206730;28;20064;-69
2022/04/02 07:06:14;;;;;;;4.45;2.35;;;3.10;99.90;;;2.87;92.33;100847.81;5207056;28;20045;-70
2022/04/02 07:08:46;;;;;;;6.80;2.83;;;3.10;99.90;;;2.92;92.10;100846.41;5207109;28;20052;-69
2022/04/02 07:11:18;;;;;;;4.85;2.17;;;3.10;99.90;;;2.93;92.33;100848.22;5206886;28;20051;-70
2022/04/02 07:13:51;;;;;;;3.95;2.30;;;3.20;99.90;;;2.97;92.13;100855.31;5206919;28;20054;-69
2022/04/02 07:16:23;;;;;;;5.28;2.42;;;3.20;99.90;;;3.04;91.83;100851.47;5207420;28;20051;-69
2022/04/02 07:18:57;;;;;;;3.38;2.17;;;3.30;99.90;;;3.07;91.47;100855.94;5206592;28;20049;-69
2022/04/02 07:21:30;;;;;;;4.50;2.33;;;3.30;99.90;;;3.07;90.93;100861.09;5206786;28;20055;-70
2022/04/02 07:24:02;;;;;;;4.22;2.15;;;3.30;99.90;;;3.06;90.91;100860.16;5206790;28;20056;-70
2022/04/02 07:26:34;;;;;;;6.07;2.45;;;3.30;99.90;;;3.06;90.63;100864.44;5206804;28;20046;-68
2022/04/02 07:29:09;;;;;;;4.80;2.17;;;3.30;99.90;;;3.06;90.55;100864.44;5206612;28;20045;-70
2022/04/02 07:31:44;;;;;;;3.22;2.13;;;3.30;99.90;;;3.10;90.30;100871.59;5205907;28;20104;-69
2022/04/02 07:34:16;;;;;;;5.63;2.70;;;3.30;99.90;;;3.16;90.00;100869.41;5206659;28;20449;-70
2022/04/02 07:37:00;;;;;;;5.53;2.17;;;3.40;99.90;;;3.21;90.12;100876.66;5206368;28;20055;-69
2022/04/02 07:39:45;;;;;;;3.85;2.17;;;3.40;99.90;;;3.20;89.44;100876.56;5206167;28;20049;-69
2022/04/02 07:42:26;;;;;;;4.22;2.10;;;3.40;99.90;;;3.23;89.22;100885.38;5205665;28;20053;-68
2022/04/02 07:45:06;;;;;;;5.15;2.08;;;3.50;99.90;;;3.29;89.01;100886.56;5206544;28;20409;-69
2022/04/02 07:47:39;;;;;;;6.20;2.50;;;3.50;99.90;;;3.34;88.96;100888.66;5206305;28;20494;-70
2022/04/02 07:50:14;;;;;;;4.15;2.33;;;3.50;99.90;;;3.38;89.18;100890.63;5206107;28;20052;-69
2022/04/02 07:52:48;;;;;;;4.72;2.38;;;3.60;99.90;;;3.39;88.68;100895.00;5205480;28;20088;-70
2022/04/02 07:55:22;;;;;;;4.63;2.13;;;3.60;99.90;;;3.38;88.02;100895.75;5206401;28;20050;-68
2022/04/02 07:57:54;;;;;;;4.18;2.75;;;3.60;99.90;;;3.39;87.79;100895.00;5206297;28;20405;-69
2022/04/02 08:00:29;;;;;;;5.40;2.63;;;3.60;99.90;;;3.42;87.64;100897.75;5205752;28;20045;-69
2022/04/02 08:03:02;;;;;;;4.13;2.35;;;3.60;99.90;;;3.49;87.39;100902.53;5205988;28;20140;-67
2022/04/02 08:05:34;;;;;;;4.57;2.20;;;3.70;99.90;;;3.62;86.93;100901.63;5205997;28;20049;-69
2022/04/02 08:08:08;;;;;;;3.80;2.30;;;3.80;99.90;;;3.71;86.74;100897.03;5206030;28;20052;-67
2022/04/02 08:10:45;;;;;;;6.03;2.35;;;3.80;99.90;;;3.72;85.96;100908.28;5205976;28;20052;-68
2022/04/02 08:13:17;;;;;;;8.23;2.60;;;3.90;99.90;;;3.75;85.75;100908.44;5205903;28;20056;-68
2022/04/02 08:15:54;;;;;;;5.47;2.70;;;3.90;99.90;;;3.75;85.55;100914.50;5205820;28;20049;-67
2022/04/02 08:18:27;;;;;;;4.22;1.90;;;3.90;99.90;;;3.76;85.25;100916.28;5206140;28;20049;-68
2022/04/02 08:20:59;;;;;;;3.35;2.22;;;3.90;99.90;;;3.72;85.14;100916.00;5205497;28;20059;-68
2022/04/02 08:23:31;;;;;;;5.53;2.42;;;3.90;99.90;;;3.70;84.80;100925.31;5205945;28;20520;-68
2022/04/02 08:26:26;;;;;;;4.57;2.65;;;3.90;99.90;;;3.69;84.58;100933.84;5205765;28;20076;-68
2022/04/02 08:29:11;;;;;;;;;;;3.90;99.90;;;3.66;84.36;100926.81;5206387;28;20103;-68
2022/04/02 08:32:00;;;;;;;9.38;2.22;;;3.90;99.90;;;3.61;83.57;100922.16;5205492;28;19924;-69
2022/04/02 08:34:49;;;;;;;5.57;2.42;;;3.90;99.90;;;3.51;83.78;100929.28;5205715;28;20060;-68
2022/04/02 08:37:29;;;;;;;4.85;2.45;;;3.80;99.90;;;3.45;83.42;100936.59;5205843;28;20478;-68
2022/04/02 08:40:16;;;;;;;4.40;2.58;;;3.80;99.90;;;3.47;83.68;100937.63;5205563;28;20052;-68
2022/04/02 08:43:23;;;;;;;6.78;2.60;;;3.70;99.90;;;3.51;83.37;100941.28;5205392;28;20056;-67
2022/04/02 08:46:04;;;;;;;4.13;2.38;;;3.80;99.90;;;3.56;83.55;100942.47;5201868;28;20052;-67
2022/04/02 08:48:52;;;;;;;3.88;2.10;;;3.80;99.90;;;3.61;83.28;100950.50;5205066;28;20054;-67
2022/04/02 08:51:41;;;;;;;4.05;2.42;;;3.80;99.90;;;3.69;83.07;100951.88;5205164;28;20049;-65
2022/04/02 08:54:26;;;;;;;4.85;2.58;;;3.80;99.90;;;3.71;82.92;100956.34;5205068;28;20052;-66
2022/04/02 08:57:13;;;;;;;6.82;2.90;;;3.90;99.90;;;3.79;82.97;100959.44;5204951;28;20136;-67
2022/04/02 09:00:03;;;;;;;3.95;2.38;;;4.00;99.90;;;3.87;82.73;100962.50;5204772;28;20132;-67
2022/04/02 09:03:29;;;;;;;5.28;2.70;;;4.00;99.90;;;3.93;82.66;100966.38;5204870;28;20054;-66
2022/04/02 09:06:29;;;;;;;4.65;2.30;;;4.10;99.90;;;4.04;82.84;100964.44;5205374;28;20482;-67
2022/04/02 09:09:06;;;;;;;4.20;2.20;;;4.20;99.90;;;4.15;82.92;100963.44;5205098;28;20057;-67
2022/04/02 09:12:28;;;;;;;3.97;2.25;;;4.30;99.90;;;4.27;82.37;100974.53;5206479;28;20490;-67
2022/04/02 09:15:11;;;;;;;4.28;2.10;;;4.40;99.90;;;4.38;81.50;100979.50;5192752;28;20056;-66
2022/04/02 09:18:02;;;;;;;6.35;2.45;;;4.50;99.90;;;4.51;81.54;100990.69;5209168;28;20051;-66
2022/04/02 09:20:47;;;;;;;4.97;2.22;;;4.50;99.90;;;4.67;81.25;100986.44;5209131;28;20050;-66
2022/04/02 09:23:43;;;;;;;6.53;2.30;;;4.60;99.90;;;4.83;80.45;100991.75;5208949;28;20053;-66
2022/04/02 09:26:54;;;;;;;6.78;2.70;;;4.80;99.90;;;5.00;79.50;100993.66;5209194;28;20118;-67
2022/04/02 09:29:29;;;;;;;5.00;2.20;;;4.90;99.90;;;5.13;79.39;100997.88;5197610;28;20042;-65
2022/04/02 09:32:49;;;;;;;6.65;2.60;;;5.10;99.90;;;5.22;78.20;100994.97;5208701;28;20262;-67
2022/04/02 09:36:04;;;;;;;3.65;2.20;;;5.10;99.90;;;5.36;77.79;101002.72;5208686;28;20050;-65
2022/04/02 09:39:02;;;;;;;8.07;2.50;;;5.30;99.90;;;5.53;77.40;101003.69;5207577;28;20057;-67
2022/04/02 09:42:24;;;;;;;4.95;2.17;;;5.40;99.90;;;5.75;76.41;101010.13;5208452;28;20049;-66
2022/04/02 09:45:00;;;;;;;3.35;2.28;;;5.60;99.90;;;5.80;74.53;101006.97;5208689;28;20136;-67
2022/04/02 09:48:14;;;;;;;3.80;2.30;;;5.70;99.90;;;5.97;71.76;101020.91;5208256;28;20049;-67
2022/04/02 09:50:49;;;;;;;3.67;2.17;;;5.80;99.90;;;5.99;71.22;101020.16;5208359;28;20045;-67
2022/04/02 09:53:29;;;;;;;3.38;2.50;;;5.90;99.90;;;6.04;69.95;101019.56;5208346;28;20486;-66
2022/04/02 09:56:27;;;;;;;4.10;2.30;;;5.90;99.90;;;6.17;70.01;101019.44;5208671;28;20049;-68
2022/04/02 09:59:09;;;;;;;3.92;2.20;;;6.00;99.90;;;6.18;68.73;101024.69;5208136;28;20391;-67
2022/04/02 10:01:52;;;;;;;4.82;1.75;;;6.10;99.90;;;6.20;67.87;101027.38;5208168;28;20430;-67
2022/04/02 10:04:40;;;;;;;4.63;2.38;;;6.10;99.90;;;6.37;68.74;101024.03;5208117;28;20099;-67
2022/04/02 10:07:25;;;;;;;3.53;2.05;;;6.20;99.90;;;6.44;67.31;101022.66;5208275;28;20057;-67
2022/04/02 10:09:59;;;;;;;4.65;2.28;;;6.20;99.90;;;6.52;66.77;101026.59;5207931;28;20478;-66
2022/04/02 10:12:36;;;;;;;3.90;2.53;;;6.30;99.90;;;6.51;64.82;101035.13;5207888;28;20068;-67
2022/04/02 10:15:09;;;;;;;3.63;2.00;;;6.30;99.90;;;6.64;64.23;101022.03;5208155;28;20057;-66
2022/04/02 10:17:46;;;;;;;4.53;2.50;;;6.40;99.90;;;6.64;64.87;101037.56;5207982;28;20058;-67
2022/04/02 10:20:23;;;;;;;5.28;2.40;;;6.50;99.90;;;6.67;65.08;101029.09;5207679;28;20068;-66
2022/04/02 10:23:05;;;;;;;3.55;1.75;;;6.50;99.90;;;6.69;65.14;101035.25;5206526;28;20060;-67
2022/04/02 10:25:51;;;;;;;5.32;2.25;;;6.60;99.90;;;6.71;64.34;101042.28;5207981;28;20099;-68
2022/04/02 10:28:30;;;;;;;6.50;2.53;;;6.60;99.90;;;6.72;64.04;101043.19;5207878;28;20053;-65
2022/04/02 10:31:06;;;;;;;5.90;2.20;;;6.60;99.50;;;6.75;63.54;101040.75;5214598;23;20506;-81
2022/04/02 10:33:44;;;;;;;5.15;2.30;;;6.60;99.20;;;6.94;63.65;101033.16;5208525;28;20051;-81
2022/04/02 10:36:18;;;;;;;5.90;2.50;;;6.70;99.60;;;7.14;63.81;101036.81;5224655;23;20057;-66
2022/04/02 10:38:52;;;;;;;8.18;2.45;;;6.90;99.90;;;7.37;63.51;101030.22;5207856;28;20136;-66
2022/04/02 10:41:28;;;;;;;4.32;2.33;;;7.10;99.90;;;7.60;63.62;101033.97;5207609;28;20410;-66
2022/04/02 10:44:10;;;;;;;2.75;1.95;;;7.30;99.80;;;7.69;62.28;101043.91;5207841;28;20214;-67
2022/04/02 10:46:47;;;;;;;4.40;2.50;;;7.40;98.90;;;7.35;57.98;101045.69;5207658;28;20058;-66
2022/04/02 10:49:27;;;;;;;3.28;2.20;;;7.30;94.90;;;7.03;57.53;101046.59;5208005;28;20077;-67
2022/04/02 10:52:02;;;;;;;4.82;2.25;;;7.10;93.40;;;7.00;58.84;101041.28;5207411;28;20053;-67
2022/04/02 10:54:40;;;;;;;4.60;2.63;;;7.00;95.00;;;7.01;59.43;101039.56;5207511;28;20050;-66
2022/04/02 10:57:12;;;;;;;3.75;2.28;;;7.00;95.50;;;6.93;59.30;101054.72;5207244;28;20141;-67
2022/04/02 10:59:48;;;;;;;5.43;3.60;;;6.90;95.40;;;6.87;57.57;101049.19;5207233;28;20132;-67
2022/04/02 11:02:24;;;;;;;4.53;2.63;;;6.90;93.40;;;7.05;58.38;101049.28;5207341;28;20045;-67
2022/04/02 11:05:02;;;;;;;6.18;2.30;;;6.90;94.60;;;7.08;58.12;101044.25;5207487;28;20545;-67